sensor_id;sensor_type;location;lat;lon;timestamp;P1;durP1;ratioP1;P2;durP2;ratioP2
54849;SDS011;47660;51.334;12.396;2023-12-20T00:00:38;3.05;;;1.67;;
54849;SDS011;47660;51.334;12.396;2023-12-20T00:03:03;3.40;;;1.67;;
54849;SDS011;47660;51.334;12.396;2023-12-20T00:05:29;2.90;;;1.63;;
54849;SDS011;47660;51.334;12.396;2023-12-20T00:07:57;3.55;;;2.13;;
54849;SDS011;47660;51.334;12.396;2023-12-20T00:10:22;3.83;;;1.98;;
54849;SDS011;47660;51.334;12.396;2023-12-20T00:12:47;3.40;;;1.65;;
54849;SDS011;47660;51.334;12.396;2023-12-20T00:15:12;1.70;;;1.50;;
54849;SDS011;47660;51.334;12.396;2023-12-20T00:17:38;2.85;;;1.35;;
54849;SDS011;47660;51.334;12.396;2023-12-20T00:20:03;3.17;;;1.80;;
54849;SDS011;47660;51.334;12.396;2023-12-20T00:22:29;3.05;;;1.52;;
54849;SDS011;47660;51.334;12.396;2023-12-20T00:24:54;1.35;;;1.25;;
54849;SDS011;47660;51.334;12.396;2023-12-20T00:27:19;3.47;;;1.63;;
54849;SDS011;47660;51.334;12.396;2023-12-20T00:29:44;2.03;;;1.20;;
54849;SDS011;47660;51.334;12.396;2023-12-20T00:32:12;1.85;;;1.20;;
54849;SDS011;47660;51.334;12.396;2023-12-20T00:34:38;2.47;;;1.40;;
54849;SDS011;47660;51.334;12.396;2023-12-20T00:37:03;3.35;;;1.77;;
54849;SDS011;47660;51.334;12.396;2023-12-20T00:39:28;1.63;;;1.05;;
54849;SDS011;47660;51.334;12.396;2023-12-20T00:41:53;2.78;;;1.48;;
54849;SDS011;47660;51.334;12.396;2023-12-20T00:44:19;1.40;;;1.05;;
54849;SDS011;47660;51.334;12.396;2023-12-20T00:46:44;1.70;;;1.17;;
54849;SDS011;47660;51.334;12.396;2023-12-20T00:49:09;1.35;;;1.05;;
54849;SDS011;47660;51.334;12.396;2023-12-20T00:51:34;2.28;;;1.15;;
54849;SDS011;47660;51.334;12.396;2023-12-20T00:54:00;2.25;;;1.00;;
54849;SDS011;47660;51.334;12.396;2023-12-20T00:56:25;1.30;;;1.00;;
54849;SDS011;47660;51.334;12.396;2023-12-20T00:58:50;2.45;;;1.30;;
54849;SDS011;47660;51.334;12.396;2023-12-20T01:01:15;5.00;;;1.00;;
54849;SDS011;47660;51.334;12.396;2023-12-20T01:03:41;1.48;;;0.93;;
54849;SDS011;47660;51.334;12.396;2023-12-20T01:08:31;1.40;;;1.00;;
54849;SDS011;47660;51.334;12.396;2023-12-20T01:10:56;1.08;;;0.73;;
54849;SDS011;47660;51.334;12.396;2023-12-20T01:13:22;0.65;;;0.60;;
54849;SDS011;47660;51.334;12.396;2023-12-20T01:15:47;1.25;;;0.90;;
54849;SDS011;47660;51.334;12.396;2023-12-20T01:18:13;0.77;;;0.50;;
54849;SDS011;47660;51.334;12.396;2023-12-20T01:20:38;1.13;;;1.00;;
54849;SDS011;47660;51.334;12.396;2023-12-20T01:23:03;0.93;;;0.77;;
54849;SDS011;47660;51.334;12.396;2023-12-20T01:25:29;2.75;;;1.38;;
54849;SDS011;47660;51.334;12.396;2023-12-20T01:27:54;1.17;;;0.70;;
54849;SDS011;47660;51.334;12.396;2023-12-20T01:30:19;1.77;;;0.60;;
54849;SDS011;47660;51.334;12.396;2023-12-20T01:32:44;1.08;;;0.85;;
54849;SDS011;47660;51.334;12.396;2023-12-20T01:35:10;0.80;;;0.70;;
54849;SDS011;47660;51.334;12.396;2023-12-20T01:37:37;1.38;;;0.80;;
54849;SDS011;47660;51.334;12.396;2023-12-20T01:40:02;1.40;;;0.75;;
54849;SDS011;47660;51.334;12.396;2023-12-20T01:42:28;5.15;;;0.60;;
54849;SDS011;47660;51.334;12.396;2023-12-20T01:44:54;0.93;;;0.75;;
54849;SDS011;47660;51.334;12.396;2023-12-20T01:47:19;1.63;;;0.68;;
54849;SDS011;47660;51.334;12.396;2023-12-20T01:49:45;1.33;;;0.70;;
54849;SDS011;47660;51.334;12.396;2023-12-20T01:52:10;1.15;;;0.80;;
54849;SDS011;47660;51.334;12.396;2023-12-20T01:54:36;1.60;;;0.85;;
54849;SDS011;47660;51.334;12.396;2023-12-20T01:57:02;1.23;;;0.75;;
54849;SDS011;47660;51.334;12.396;2023-12-20T01:59:28;1.73;;;0.98;;
54849;SDS011;47660;51.334;12.396;2023-12-20T02:01:54;0.80;;;0.68;;
54849;SDS011;47660;51.334;12.396;2023-12-20T02:04:20;1.23;;;0.93;;
54849;SDS011;47660;51.334;12.396;2023-12-20T02:06:45;1.40;;;0.90;;
54849;SDS011;47660;51.334;12.396;2023-12-20T02:09:11;0.70;;;0.70;;
54849;SDS011;47660;51.334;12.396;2023-12-20T02:11:36;0.93;;;0.55;;
54849;SDS011;47660;51.334;12.396;2023-12-20T02:14:03;0.55;;;0.50;;
54849;SDS011;47660;51.334;12.396;2023-12-20T02:16:28;0.90;;;0.50;;
54849;SDS011;47660;51.334;12.396;2023-12-20T02:18:53;1.05;;;0.70;;
54849;SDS011;47660;51.334;12.396;2023-12-20T02:21:23;1.10;;;0.60;;
54849;SDS011;47660;51.334;12.396;2023-12-20T02:23:49;0.63;;;0.55;;
54849;SDS011;47660;51.334;12.396;2023-12-20T02:26:15;1.40;;;0.82;;
54849;SDS011;47660;51.334;12.396;2023-12-20T02:28:41;0.60;;;0.52;;
54849;SDS011;47660;51.334;12.396;2023-12-20T02:31:06;1.35;;;0.65;;
54849;SDS011;47660;51.334;12.396;2023-12-20T02:33:32;1.00;;;0.68;;
54849;SDS011;47660;51.334;12.396;2023-12-20T02:35:57;1.33;;;0.50;;
54849;SDS011;47660;51.334;12.396;2023-12-20T02:38:22;1.33;;;0.75;;
54849;SDS011;47660;51.334;12.396;2023-12-20T02:40:47;1.38;;;0.90;;
54849;SDS011;47660;51.334;12.396;2023-12-20T02:43:13;1.08;;;0.82;;
54849;SDS011;47660;51.334;12.396;2023-12-20T02:45:38;0.52;;;0.50;;
54849;SDS011;47660;51.334;12.396;2023-12-20T02:48:03;0.65;;;0.40;;
54849;SDS011;47660;51.334;12.396;2023-12-20T02:50:29;0.75;;;0.50;;
54849;SDS011;47660;51.334;12.396;2023-12-20T02:52:54;0.57;;;0.57;;
54849;SDS011;47660;51.334;12.396;2023-12-20T02:55:19;0.95;;;0.70;;
54849;SDS011;47660;51.334;12.396;2023-12-20T02:57:44;0.85;;;0.50;;
54849;SDS011;47660;51.334;12.396;2023-12-20T03:00:10;0.68;;;0.60;;
54849;SDS011;47660;51.334;12.396;2023-12-20T03:02:35;0.60;;;0.60;;
54849;SDS011;47660;51.334;12.396;2023-12-20T03:05:01;0.57;;;0.55;;
54849;SDS011;47660;51.334;12.396;2023-12-20T03:07:27;0.43;;;0.30;;
54849;SDS011;47660;51.334;12.396;2023-12-20T03:09:52;0.50;;;0.50;;
54849;SDS011;47660;51.334;12.396;2023-12-20T03:12:17;1.33;;;0.65;;
54849;SDS011;47660;51.334;12.396;2023-12-20T03:14:43;1.35;;;0.60;;
54849;SDS011;47660;51.334;12.396;2023-12-20T03:17:09;1.05;;;0.52;;
54849;SDS011;47660;51.334;12.396;2023-12-20T03:19:34;0.50;;;0.50;;
54849;SDS011;47660;51.334;12.396;2023-12-20T03:21:59;1.20;;;0.63;;
54849;SDS011;47660;51.334;12.396;2023-12-20T03:24:25;0.73;;;0.40;;
54849;SDS011;47660;51.334;12.396;2023-12-20T03:26:51;0.93;;;0.63;;
54849;SDS011;47660;51.334;12.396;2023-12-20T03:29:16;0.65;;;0.50;;
54849;SDS011;47660;51.334;12.396;2023-12-20T03:31:41;2.38;;;0.70;;
54849;SDS011;47660;51.334;12.396;2023-12-20T03:34:07;0.93;;;0.70;;
54849;SDS011;47660;51.334;12.396;2023-12-20T03:36:32;0.57;;;0.52;;
54849;SDS011;47660;51.334;12.396;2023-12-20T03:38:57;0.77;;;0.50;;
54849;SDS011;47660;51.334;12.396;2023-12-20T03:41:22;1.13;;;0.63;;
54849;SDS011;47660;51.334;12.396;2023-12-20T03:43:48;0.60;;;0.57;;
54849;SDS011;47660;51.334;12.396;2023-12-20T03:46:13;1.10;;;0.95;;
54849;SDS011;47660;51.334;12.396;2023-12-20T03:48:38;1.42;;;0.70;;
54849;SDS011;47660;51.334;12.396;2023-12-20T03:51:03;0.60;;;0.50;;
54849;SDS011;47660;51.334;12.396;2023-12-20T03:53:29;0.98;;;0.70;;
54849;SDS011;47660;51.334;12.396;2023-12-20T03:55:54;4.15;;;0.60;;
54849;SDS011;47660;51.334;12.396;2023-12-20T03:58:19;0.80;;;0.80;;
54849;SDS011;47660;51.334;12.396;2023-12-20T04:00:44;1.27;;;0.75;;
54849;SDS011;47660;51.334;12.396;2023-12-20T04:03:10;1.60;;;0.80;;
54849;SDS011;47660;51.334;12.396;2023-12-20T04:05:38;1.25;;;0.70;;
54849;SDS011;47660;51.334;12.396;2023-12-20T04:08:03;0.95;;;0.70;;
54849;SDS011;47660;51.334;12.396;2023-12-20T04:10:29;0.90;;;0.70;;
54849;SDS011;47660;51.334;12.396;2023-12-20T04:12:54;1.17;;;0.68;;
54849;SDS011;47660;51.334;12.396;2023-12-20T04:15:20;0.70;;;0.70;;
54849;SDS011;47660;51.334;12.396;2023-12-20T04:17:45;0.68;;;0.40;;
54849;SDS011;47660;51.334;12.396;2023-12-20T04:20:10;1.10;;;0.80;;
54849;SDS011;47660;51.334;12.396;2023-12-20T04:22:36;1.30;;;0.90;;
54849;SDS011;47660;51.334;12.396;2023-12-20T04:25:01;1.45;;;1.00;;
54849;SDS011;47660;51.334;12.396;2023-12-20T04:27:27;1.13;;;0.85;;
54849;SDS011;47660;51.334;12.396;2023-12-20T04:29:52;1.27;;;0.98;;
54849;SDS011;47660;51.334;12.396;2023-12-20T04:32:17;1.40;;;0.95;;
54849;SDS011;47660;51.334;12.396;2023-12-20T04:34:42;1.05;;;0.68;;
54849;SDS011;47660;51.334;12.396;2023-12-20T04:37:08;1.25;;;0.80;;
54849;SDS011;47660;51.334;12.396;2023-12-20T04:39:33;4.22;;;0.93;;
54849;SDS011;47660;51.334;12.396;2023-12-20T04:41:58;1.65;;;0.73;;
54849;SDS011;47660;51.334;12.396;2023-12-20T04:44:23;1.08;;;0.70;;
54849;SDS011;47660;51.334;12.396;2023-12-20T04:46:49;1.20;;;0.90;;
54849;SDS011;47660;51.334;12.396;2023-12-20T04:49:14;1.98;;;1.02;;
54849;SDS011;47660;51.334;12.396;2023-12-20T04:51:39;2.08;;;0.93;;
54849;SDS011;47660;51.334;12.396;2023-12-20T04:54:04;1.15;;;0.85;;
54849;SDS011;47660;51.334;12.396;2023-12-20T04:56:30;2.17;;;0.95;;
54849;SDS011;47660;51.334;12.396;2023-12-20T04:58:55;1.20;;;1.00;;
54849;SDS011;47660;51.334;12.396;2023-12-20T05:01:20;1.23;;;0.95;;
54849;SDS011;47660;51.334;12.396;2023-12-20T05:03:46;1.42;;;1.02;;
54849;SDS011;47660;51.334;12.396;2023-12-20T05:06:11;1.25;;;0.80;;
54849;SDS011;47660;51.334;12.396;2023-12-20T05:08:37;1.27;;;1.00;;
54849;SDS011;47660;51.334;12.396;2023-12-20T05:11:02;2.15;;;1.50;;
54849;SDS011;47660;51.334;12.396;2023-12-20T05:13:28;2.28;;;1.00;;
54849;SDS011;47660;51.334;12.396;2023-12-20T05:15:53;1.95;;;1.05;;
54849;SDS011;47660;51.334;12.396;2023-12-20T05:18:19;2.20;;;1.30;;
54849;SDS011;47660;51.334;12.396;2023-12-20T05:20:45;2.25;;;1.25;;
54849;SDS011;47660;51.334;12.396;2023-12-20T05:23:11;2.25;;;1.30;;
54849;SDS011;47660;51.334;12.396;2023-12-20T05:25:38;2.25;;;1.30;;
54849;SDS011;47660;51.334;12.396;2023-12-20T05:28:03;2.58;;;1.48;;
54849;SDS011;47660;51.334;12.396;2023-12-20T05:30:29;2.65;;;1.40;;
54849;SDS011;47660;51.334;12.396;2023-12-20T05:32:54;1.98;;;1.27;;
54849;SDS011;47660;51.334;12.396;2023-12-20T05:35:19;1.90;;;1.25;;
54849;SDS011;47660;51.334;12.396;2023-12-20T05:37:45;2.70;;;1.42;;
54849;SDS011;47660;51.334;12.396;2023-12-20T05:40:10;1.85;;;1.05;;
54849;SDS011;47660;51.334;12.396;2023-12-20T05:42:36;3.15;;;1.55;;
54849;SDS011;47660;51.334;12.396;2023-12-20T05:45:02;4.95;;;1.55;;
54849;SDS011;47660;51.334;12.396;2023-12-20T05:47:28;3.47;;;1.80;;
54849;SDS011;47660;51.334;12.396;2023-12-20T05:49:54;5.28;;;1.98;;
54849;SDS011;47660;51.334;12.396;2023-12-20T05:52:19;2.72;;;1.55;;
54849;SDS011;47660;51.334;12.396;2023-12-20T05:54:44;2.15;;;1.42;;
54849;SDS011;47660;51.334;12.396;2023-12-20T05:57:09;3.75;;;1.58;;
54849;SDS011;47660;51.334;12.396;2023-12-20T05:59:35;2.70;;;1.70;;
54849;SDS011;47660;51.334;12.396;2023-12-20T06:02:00;2.28;;;1.60;;
54849;SDS011;47660;51.334;12.396;2023-12-20T06:04:25;5.55;;;1.88;;
54849;SDS011;47660;51.334;12.396;2023-12-20T06:06:50;1.98;;;1.65;;
54849;SDS011;47660;51.334;12.396;2023-12-20T06:09:16;2.88;;;1.70;;
54849;SDS011;47660;51.334;12.396;2023-12-20T06:11:41;2.72;;;1.83;;
54849;SDS011;47660;51.334;12.396;2023-12-20T06:14:06;2.38;;;1.58;;
54849;SDS011;47660;51.334;12.396;2023-12-20T06:16:31;1.80;;;1.35;;
54849;SDS011;47660;51.334;12.396;2023-12-20T06:18:57;2.45;;;1.60;;
54849;SDS011;47660;51.334;12.396;2023-12-20T06:21:22;3.67;;;1.60;;
54849;SDS011;47660;51.334;12.396;2023-12-20T06:23:47;3.47;;;1.63;;
54849;SDS011;47660;51.334;12.396;2023-12-20T06:26:13;2.35;;;1.35;;
54849;SDS011;47660;51.334;12.396;2023-12-20T06:28:38;2.15;;;1.50;;
54849;SDS011;47660;51.334;12.396;2023-12-20T06:31:03;2.10;;;1.48;;
54849;SDS011;47660;51.334;12.396;2023-12-20T06:33:28;3.42;;;1.30;;
54849;SDS011;47660;51.334;12.396;2023-12-20T06:35:55;2.03;;;1.38;;
54849;SDS011;47660;51.334;12.396;2023-12-20T06:38:21;3.80;;;1.55;;
54849;SDS011;47660;51.334;12.396;2023-12-20T06:40:46;2.17;;;1.40;;
54849;SDS011;47660;51.334;12.396;2023-12-20T06:43:12;2.33;;;1.25;;
54849;SDS011;47660;51.334;12.396;2023-12-20T06:45:38;2.10;;;1.40;;
54849;SDS011;47660;51.334;12.396;2023-12-20T06:48:03;1.75;;;1.25;;
54849;SDS011;47660;51.334;12.396;2023-12-20T06:50:29;2.22;;;1.30;;
54849;SDS011;47660;51.334;12.396;2023-12-20T06:52:54;1.70;;;1.23;;
54849;SDS011;47660;51.334;12.396;2023-12-20T06:55:19;2.72;;;1.23;;
54849;SDS011;47660;51.334;12.396;2023-12-20T06:57:45;2.45;;;1.50;;
54849;SDS011;47660;51.334;12.396;2023-12-20T07:00:10;1.88;;;1.40;;
54849;SDS011;47660;51.334;12.396;2023-12-20T07:02:36;1.42;;;1.27;;
54849;SDS011;47660;51.334;12.396;2023-12-20T07:05:01;1.55;;;1.13;;
54849;SDS011;47660;51.334;12.396;2023-12-20T07:07:27;2.17;;;1.27;;
54849;SDS011;47660;51.334;12.396;2023-12-20T07:09:52;1.80;;;1.50;;
54849;SDS011;47660;51.334;12.396;2023-12-20T07:12:17;2.13;;;1.02;;
54849;SDS011;47660;51.334;12.396;2023-12-20T07:14:44;2.55;;;1.20;;
54849;SDS011;47660;51.334;12.396;2023-12-20T07:17:10;2.38;;;1.20;;
54849;SDS011;47660;51.334;12.396;2023-12-20T07:19:37;1.30;;;0.95;;
54849;SDS011;47660;51.334;12.396;2023-12-20T07:22:03;2.10;;;1.38;;
54849;SDS011;47660;51.334;12.396;2023-12-20T07:24:29;1.42;;;1.10;;
54849;SDS011;47660;51.334;12.396;2023-12-20T07:26:54;2.22;;;0.93;;
54849;SDS011;47660;51.334;12.396;2023-12-20T07:29:19;2.17;;;1.10;;
54849;SDS011;47660;51.334;12.396;2023-12-20T07:31:44;1.55;;;0.85;;
54849;SDS011;47660;51.334;12.396;2023-12-20T07:34:10;0.80;;;0.70;;
54849;SDS011;47660;51.334;12.396;2023-12-20T07:36:35;2.53;;;0.80;;
54849;SDS011;47660;51.334;12.396;2023-12-20T07:39:00;3.05;;;0.77;;
54849;SDS011;47660;51.334;12.396;2023-12-20T07:41:25;2.90;;;0.70;;
54849;SDS011;47660;51.334;12.396;2023-12-20T07:43:51;1.88;;;0.80;;
54849;SDS011;47660;51.334;12.396;2023-12-20T07:46:16;2.25;;;0.90;;
54849;SDS011;47660;51.334;12.396;2023-12-20T07:48:41;1.67;;;0.90;;
54849;SDS011;47660;51.334;12.396;2023-12-20T07:51:07;1.45;;;0.80;;
54849;SDS011;47660;51.334;12.396;2023-12-20T07:53:34;5.60;;;0.70;;
54849;SDS011;47660;51.334;12.396;2023-12-20T07:56:00;1.65;;;0.93;;
54849;SDS011;47660;51.334;12.396;2023-12-20T07:58:25;1.17;;;0.60;;
54849;SDS011;47660;51.334;12.396;2023-12-20T08:00:50;0.60;;;0.50;;
54849;SDS011;47660;51.334;12.396;2023-12-20T08:03:16;0.52;;;0.50;;
54849;SDS011;47660;51.334;12.396;2023-12-20T08:05:41;1.17;;;0.73;;
54849;SDS011;47660;51.334;12.396;2023-12-20T08:08:06;3.15;;;0.65;;
54849;SDS011;47660;51.334;12.396;2023-12-20T08:10:32;4.88;;;0.93;;
54849;SDS011;47660;51.334;12.396;2023-12-20T08:12:57;3.58;;;0.82;;
54849;SDS011;47660;51.334;12.396;2023-12-20T08:15:22;0.55;;;0.50;;
54849;SDS011;47660;51.334;12.396;2023-12-20T08:17:48;0.57;;;0.47;;
54849;SDS011;47660;51.334;12.396;2023-12-20T08:20:15;2.97;;;0.45;;
54849;SDS011;47660;51.334;12.396;2023-12-20T08:22:41;0.82;;;0.50;;
54849;SDS011;47660;51.334;12.396;2023-12-20T08:25:06;0.73;;;0.60;;
54849;SDS011;47660;51.334;12.396;2023-12-20T08:27:32;1.45;;;1.08;;
54849;SDS011;47660;51.334;12.396;2023-12-20T08:29:57;3.15;;;0.70;;
54849;SDS011;47660;51.334;12.396;2023-12-20T08:32:24;1.27;;;0.52;;
54849;SDS011;47660;51.334;12.396;2023-12-20T08:34:50;2.95;;;1.15;;
54849;SDS011;47660;51.334;12.396;2023-12-20T08:37:16;1.90;;;0.73;;
54849;SDS011;47660;51.334;12.396;2023-12-20T08:39:41;3.20;;;0.70;;
54849;SDS011;47660;51.334;12.396;2023-12-20T08:42:06;0.88;;;0.60;;
54849;SDS011;47660;51.334;12.396;2023-12-20T08:44:31;1.40;;;0.63;;
54849;SDS011;47660;51.334;12.396;2023-12-20T08:46:56;5.10;;;1.30;;
54849;SDS011;47660;51.334;12.396;2023-12-20T08:49:22;3.35;;;0.98;;
54849;SDS011;47660;51.334;12.396;2023-12-20T08:51:47;1.45;;;0.80;;
54849;SDS011;47660;51.334;12.396;2023-12-20T08:54:12;0.70;;;0.50;;
54849;SDS011;47660;51.334;12.396;2023-12-20T08:56:38;0.55;;;0.55;;
54849;SDS011;47660;51.334;12.396;2023-12-20T08:59:03;2.33;;;1.00;;
54849;SDS011;47660;51.334;12.396;2023-12-20T09:01:28;4.22;;;0.75;;
54849;SDS011;47660;51.334;12.396;2023-12-20T09:03:53;2.50;;;1.00;;
54849;SDS011;47660;51.334;12.396;2023-12-20T09:06:19;1.58;;;0.75;;
54849;SDS011;47660;51.334;12.396;2023-12-20T09:08:44;0.77;;;0.50;;
54849;SDS011;47660;51.334;12.396;2023-12-20T09:11:10;2.88;;;1.00;;
54849;SDS011;47660;51.334;12.396;2023-12-20T09:13:35;3.83;;;0.65;;
54849;SDS011;47660;51.334;12.396;2023-12-20T09:16:00;1.65;;;0.70;;
54849;SDS011;47660;51.334;12.396;2023-12-20T09:18:26;1.08;;;0.60;;
54849;SDS011;47660;51.334;12.396;2023-12-20T09:20:51;1.23;;;0.73;;
54849;SDS011;47660;51.334;12.396;2023-12-20T09:23:16;8.15;;;1.20;;
54849;SDS011;47660;51.334;12.396;2023-12-20T09:25:43;2.67;;;0.80;;
54849;SDS011;47660;51.334;12.396;2023-12-20T09:28:09;2.20;;;0.75;;
54849;SDS011;47660;51.334;12.396;2023-12-20T09:30:34;1.90;;;1.00;;
54849;SDS011;47660;51.334;12.396;2023-12-20T09:33:02;2.15;;;0.47;;
54849;SDS011;47660;51.334;12.396;2023-12-20T09:35:28;1.00;;;0.90;;
54849;SDS011;47660;51.334;12.396;2023-12-20T09:37:53;1.70;;;0.88;;
54849;SDS011;47660;51.334;12.396;2023-12-20T09:40:18;6.43;;;1.40;;
54849;SDS011;47660;51.334;12.396;2023-12-20T09:45:35;1.67;;;0.90;;
54849;SDS011;47660;51.334;12.396;2023-12-20T09:48:00;1.58;;;0.77;;
54849;SDS011;47660;51.334;12.396;2023-12-20T09:50:26;1.45;;;0.98;;
54849;SDS011;47660;51.334;12.396;2023-12-20T09:52:52;1.55;;;0.95;;
54849;SDS011;47660;51.334;12.396;2023-12-20T09:55:21;2.85;;;1.08;;
54849;SDS011;47660;51.334;12.396;2023-12-20T09:57:47;1.50;;;1.00;;
54849;SDS011;47660;51.334;12.396;2023-12-20T10:00:13;1.77;;;0.98;;
54849;SDS011;47660;51.334;12.396;2023-12-20T10:02:41;0.68;;;0.60;;
54849;SDS011;47660;51.334;12.396;2023-12-20T10:05:31;1.55;;;0.93;;
54849;SDS011;47660;51.334;12.396;2023-12-20T10:07:57;1.85;;;0.70;;
54849;SDS011;47660;51.334;12.396;2023-12-20T10:10:23;1.95;;;0.82;;
54849;SDS011;47660;51.334;12.396;2023-12-20T10:13:01;4.15;;;1.20;;
54849;SDS011;47660;51.334;12.396;2023-12-20T10:15:28;2.22;;;0.85;;
54849;SDS011;47660;51.334;12.396;2023-12-20T10:17:54;2.17;;;0.88;;
54849;SDS011;47660;51.334;12.396;2023-12-20T10:20:20;2.28;;;1.08;;
54849;SDS011;47660;51.334;12.396;2023-12-20T10:22:45;2.95;;;0.73;;
54849;SDS011;47660;51.334;12.396;2023-12-20T10:25:11;2.88;;;1.15;;
54849;SDS011;47660;51.334;12.396;2023-12-20T10:27:37;6.20;;;1.13;;
54849;SDS011;47660;51.334;12.396;2023-12-20T10:30:02;1.80;;;0.82;;
54849;SDS011;47660;51.334;12.396;2023-12-20T10:32:27;2.25;;;0.80;;
54849;SDS011;47660;51.334;12.396;2023-12-20T10:34:53;1.17;;;0.93;;
54849;SDS011;47660;51.334;12.396;2023-12-20T10:37:20;4.65;;;0.90;;
54849;SDS011;47660;51.334;12.396;2023-12-20T10:39:52;4.38;;;1.02;;
54849;SDS011;47660;51.334;12.396;2023-12-20T10:42:21;1.85;;;0.95;;
54849;SDS011;47660;51.334;12.396;2023-12-20T10:44:46;1.70;;;0.60;;
54849;SDS011;47660;51.334;12.396;2023-12-20T10:47:13;1.88;;;0.70;;
54849;SDS011;47660;51.334;12.396;2023-12-20T10:49:38;3.25;;;0.90;;
54849;SDS011;47660;51.334;12.396;2023-12-20T10:52:04;2.25;;;0.90;;
54849;SDS011;47660;51.334;12.396;2023-12-20T10:54:31;1.67;;;0.90;;
54849;SDS011;47660;51.334;12.396;2023-12-20T10:56:57;1.45;;;0.75;;
54849;SDS011;47660;51.334;12.396;2023-12-20T10:59:22;1.63;;;0.88;;
54849;SDS011;47660;51.334;12.396;2023-12-20T11:01:49;4.15;;;0.95;;
54849;SDS011;47660;51.334;12.396;2023-12-20T11:04:17;3.40;;;0.82;;
54849;SDS011;47660;51.334;12.396;2023-12-20T11:06:47;2.65;;;0.80;;
54849;SDS011;47660;51.334;12.396;2023-12-20T11:09:24;2.33;;;0.70;;
54849;SDS011;47660;51.334;12.396;2023-12-20T11:14:38;5.20;;;0.77;;
54849;SDS011;47660;51.334;12.396;2023-12-20T11:20:03;3.13;;;0.80;;
54849;SDS011;47660;51.334;12.396;2023-12-20T11:22:30;1.23;;;0.77;;
54849;SDS011;47660;51.334;12.396;2023-12-20T11:25:02;2.63;;;0.70;;
54849;SDS011;47660;51.334;12.396;2023-12-20T11:27:29;4.45;;;0.80;;
54849;SDS011;47660;51.334;12.396;2023-12-20T11:29:56;1.17;;;0.73;;
54849;SDS011;47660;51.334;12.396;2023-12-20T11:37:27;3.05;;;0.82;;
54849;SDS011;47660;51.334;12.396;2023-12-20T11:39:55;3.35;;;1.00;;
54849;SDS011;47660;51.334;12.396;2023-12-20T11:42:21;7.07;;;0.80;;
54849;SDS011;47660;51.334;12.396;2023-12-20T11:44:47;3.72;;;0.80;;
54849;SDS011;47660;51.334;12.396;2023-12-20T11:47:12;0.90;;;0.57;;
54849;SDS011;47660;51.334;12.396;2023-12-20T11:49:39;1.00;;;0.80;;
54849;SDS011;47660;51.334;12.396;2023-12-20T11:52:05;3.75;;;0.90;;
54849;SDS011;47660;51.334;12.396;2023-12-20T11:54:30;3.55;;;0.85;;
54849;SDS011;47660;51.334;12.396;2023-12-20T11:56:56;3.67;;;0.77;;
54849;SDS011;47660;51.334;12.396;2023-12-20T11:59:21;0.60;;;0.60;;
54849;SDS011;47660;51.334;12.396;2023-12-20T12:01:50;2.17;;;0.75;;
54849;SDS011;47660;51.334;12.396;2023-12-20T12:04:16;2.40;;;0.90;;
54849;SDS011;47660;51.334;12.396;2023-12-20T12:06:42;4.03;;;0.90;;
54849;SDS011;47660;51.334;12.396;2023-12-20T12:09:08;2.20;;;0.65;;
54849;SDS011;47660;51.334;12.396;2023-12-20T12:11:33;0.82;;;0.60;;
54849;SDS011;47660;51.334;12.396;2023-12-20T12:13:59;2.25;;;0.88;;
54849;SDS011;47660;51.334;12.396;2023-12-20T12:16:25;2.47;;;0.60;;
54849;SDS011;47660;51.334;12.396;2023-12-20T12:18:57;1.67;;;1.00;;
54849;SDS011;47660;51.334;12.396;2023-12-20T12:21:22;3.70;;;0.90;;
54849;SDS011;47660;51.334;12.396;2023-12-20T12:23:48;4.82;;;1.00;;
54849;SDS011;47660;51.334;12.396;2023-12-20T12:26:13;3.78;;;0.60;;
54849;SDS011;47660;51.334;12.396;2023-12-20T12:28:42;1.60;;;0.57;;
54849;SDS011;47660;51.334;12.396;2023-12-20T12:31:08;1.15;;;1.05;;
54849;SDS011;47660;51.334;12.396;2023-12-20T12:33:39;3.30;;;0.80;;
54849;SDS011;47660;51.334;12.396;2023-12-20T12:36:06;1.35;;;0.82;;
54849;SDS011;47660;51.334;12.396;2023-12-20T12:38:32;1.42;;;0.90;;
54849;SDS011;47660;51.334;12.396;2023-12-20T12:40:59;3.08;;;0.68;;
54849;SDS011;47660;51.334;12.396;2023-12-20T12:43:25;1.40;;;0.90;;
54849;SDS011;47660;51.334;12.396;2023-12-20T12:45:50;1.60;;;0.95;;
54849;SDS011;47660;51.334;12.396;2023-12-20T12:48:15;0.95;;;0.80;;
54849;SDS011;47660;51.334;12.396;2023-12-20T12:50:41;1.20;;;0.82;;
54849;SDS011;47660;51.334;12.396;2023-12-20T12:53:06;2.90;;;0.75;;
54849;SDS011;47660;51.334;12.396;2023-12-20T12:55:31;3.15;;;0.75;;
54849;SDS011;47660;51.334;12.396;2023-12-20T12:57:56;3.83;;;0.60;;
54849;SDS011;47660;51.334;12.396;2023-12-20T13:00:24;1.27;;;0.70;;
54849;SDS011;47660;51.334;12.396;2023-12-20T13:02:51;1.58;;;0.70;;
54849;SDS011;47660;51.334;12.396;2023-12-20T13:05:16;1.48;;;0.80;;
54849;SDS011;47660;51.334;12.396;2023-12-20T13:07:42;0.82;;;0.77;;
54849;SDS011;47660;51.334;12.396;2023-12-20T13:10:10;5.15;;;0.93;;
54849;SDS011;47660;51.334;12.396;2023-12-20T13:12:35;1.85;;;0.75;;
54849;SDS011;47660;51.334;12.396;2023-12-20T13:15:01;1.00;;;0.80;;
54849;SDS011;47660;51.334;12.396;2023-12-20T13:17:28;1.58;;;0.82;;
54849;SDS011;47660;51.334;12.396;2023-12-20T13:19:54;3.92;;;1.25;;
54849;SDS011;47660;51.334;12.396;2023-12-20T13:22:19;1.52;;;0.70;;
54849;SDS011;47660;51.334;12.396;2023-12-20T13:24:44;1.05;;;0.60;;
54849;SDS011;47660;51.334;12.396;2023-12-20T13:27:10;1.95;;;0.95;;
54849;SDS011;47660;51.334;12.396;2023-12-20T13:29:35;4.07;;;0.73;;
54849;SDS011;47660;51.334;12.396;2023-12-20T13:32:00;5.35;;;0.90;;
54849;SDS011;47660;51.334;12.396;2023-12-20T13:34:26;1.95;;;0.52;;
54849;SDS011;47660;51.334;12.396;2023-12-20T13:36:51;3.45;;;0.50;;
54849;SDS011;47660;51.334;12.396;2023-12-20T13:39:16;1.60;;;0.70;;
54849;SDS011;47660;51.334;12.396;2023-12-20T13:41:42;0.75;;;0.70;;
54849;SDS011;47660;51.334;12.396;2023-12-20T13:44:07;1.50;;;0.75;;
54849;SDS011;47660;51.334;12.396;2023-12-20T13:46:33;3.33;;;0.90;;
54849;SDS011;47660;51.334;12.396;2023-12-20T13:48:58;3.30;;;0.77;;
54849;SDS011;47660;51.334;12.396;2023-12-20T13:51:23;1.67;;;0.80;;
54849;SDS011;47660;51.334;12.396;2023-12-20T13:53:49;1.42;;;0.70;;
54849;SDS011;47660;51.334;12.396;2023-12-20T13:56:14;2.70;;;0.70;;
54849;SDS011;47660;51.334;12.396;2023-12-20T13:58:40;1.60;;;0.80;;
54849;SDS011;47660;51.334;12.396;2023-12-20T14:01:06;3.45;;;0.77;;
54849;SDS011;47660;51.334;12.396;2023-12-20T14:03:32;0.75;;;0.60;;
54849;SDS011;47660;51.334;12.396;2023-12-20T14:05:58;2.58;;;0.65;;
54849;SDS011;47660;51.334;12.396;2023-12-20T14:08:23;1.17;;;0.70;;
54849;SDS011;47660;51.334;12.396;2023-12-20T14:10:49;6.15;;;1.00;;
54849;SDS011;47660;51.334;12.396;2023-12-20T14:13:15;0.65;;;0.65;;
54849;SDS011;47660;51.334;12.396;2023-12-20T14:15:40;1.00;;;0.85;;
54849;SDS011;47660;51.334;12.396;2023-12-20T14:18:05;5.15;;;0.98;;
54849;SDS011;47660;51.334;12.396;2023-12-20T14:20:32;2.08;;;0.73;;
54849;SDS011;47660;51.334;12.396;2023-12-20T14:23:00;2.03;;;0.80;;
54849;SDS011;47660;51.334;12.396;2023-12-20T14:25:25;2.25;;;0.88;;
54849;SDS011;47660;51.334;12.396;2023-12-20T14:27:51;1.30;;;0.80;;
54849;SDS011;47660;51.334;12.396;2023-12-20T14:30:16;1.23;;;0.75;;
54849;SDS011;47660;51.334;12.396;2023-12-20T14:32:42;2.70;;;0.60;;
54849;SDS011;47660;51.334;12.396;2023-12-20T14:35:07;0.73;;;0.45;;
54849;SDS011;47660;51.334;12.396;2023-12-20T14:37:33;2.35;;;0.85;;
54849;SDS011;47660;51.334;12.396;2023-12-20T14:39:59;0.65;;;0.50;;